createdAt,value
2017-08-15T00:00:38.472Z,79.60
2017-08-15T00:01:44.420Z,79.46
2017-08-15T00:02:50.574Z,79.61
2017-08-15T00:03:56.681Z,80.15
2017-08-15T00:05:02.766Z,80.12
2017-08-15T00:06:08.640Z,80.81
2017-08-15T00:07:14.750Z,81.15
2017-08-15T00:08:21.167Z,81.39
2017-08-15T00:09:27.300Z,81.54
2017-08-15T00:10:33.373Z,81.45
2017-08-15T00:11:39.439Z,81.17
2017-08-15T00:12:52.636Z,80.80
2017-08-15T00:14:00.208Z,80.83
2017-08-15T00:15:07.203Z,80.72
2017-08-15T00:16:13.304Z,80.97
2017-08-15T00:17:19.484Z,80.93
2017-08-15T00:18:25.575Z,81.07
2017-08-15T00:19:31.718Z,81.20
2017-08-15T00:20:37.815Z,81.71
2017-08-15T00:21:44.881Z,81.88
2017-08-15T00:22:50.998Z,82.17
2017-08-15T00:23:57.068Z,82.44
2017-08-15T00:25:03.148Z,82.99
2017-08-15T00:26:09.205Z,82.59
2017-08-15T00:27:15.322Z,82.81
2017-08-15T00:28:21.437Z,83.40
2017-08-15T00:29:27.534Z,83.54
2017-08-15T00:30:32.928Z,83.83
2017-08-15T00:31:39.036Z,84.35
2017-08-15T00:32:45.130Z,84.49
2017-08-15T00:33:57.718Z,84.26
2017-08-15T00:35:04.337Z,86.42
2017-08-15T00:36:10.437Z,86.08
2017-08-15T00:37:16.572Z,85.89
2017-08-15T00:38:22.741Z,85.92
2017-08-15T00:39:28.900Z,85.71
2017-08-15T00:40:35.002Z,85.68
2017-08-15T00:41:41.094Z,85.94
2017-08-15T00:42:47.216Z,86.50
2017-08-15T00:43:53.145Z,86.75
2017-08-15T00:44:59.242Z,87.11
2017-08-15T00:46:05.320Z,86.35
2017-08-15T00:47:11.413Z,86.34
2017-08-15T00:48:17.559Z,86.88
2017-08-15T00:49:23.693Z,86.45
2017-08-15T00:50:29.829Z,86.45
2017-08-15T00:51:35.361Z,86.07
2017-08-15T00:52:41.501Z,86.61
2017-08-15T00:53:47.429Z,86.29
2017-08-15T00:54:54.957Z,86.59
2017-08-15T00:56:01.021Z,86.71
2017-08-15T00:57:07.994Z,86.21
2017-08-15T00:58:13.721Z,86.22
2017-08-15T00:59:19.803Z,86.98
2017-08-15T01:00:25.247Z,87.17
2017-08-15T01:01:30.438Z,87.76
2017-08-15T01:02:35.663Z,88.19
2017-08-15T01:03:41.139Z,88.57
2017-08-15T01:04:47.009Z,88.56
2017-08-15T01:05:53.143Z,88.32
2017-08-15T01:06:59.250Z,88.44
2017-08-15T01:08:05.357Z,88.34
2017-08-15T01:09:12.261Z,88.62
2017-08-15T01:10:18.493Z,88.99
2017-08-15T01:11:24.574Z,89.34
2017-08-15T01:12:30.639Z,89.33
2017-08-15T01:13:36.710Z,89.23
2017-08-15T01:14:42.820Z,88.90
2017-08-15T01:15:48.973Z,87.73
2017-08-15T01:16:55.140Z,86.66
2017-08-15T01:18:01.268Z,86.26
2017-08-15T01:19:07.200Z,85.65
2017-08-15T01:20:12.893Z,85.50
2017-08-15T01:21:18.812Z,85.36
2017-08-15T01:22:24.549Z,85.16
2017-08-15T01:23:30.470Z,85.76
2017-08-15T01:24:36.574Z,86.26
2017-08-15T01:25:42.771Z,86.50
2017-08-15T01:26:48.693Z,87.35
2017-08-15T01:27:54.871Z,87.32
2017-08-15T01:29:01.060Z,87.39
2017-08-15T01:30:07.143Z,87.67
2017-08-15T01:31:13.246Z,86.92
2017-08-15T01:32:19.369Z,85.85
2017-08-15T01:33:25.442Z,85.97
2017-08-15T01:34:31.509Z,86.76
2017-08-15T01:35:37.572Z,87.11
2017-08-15T01:36:43.680Z,86.23
2017-08-15T01:37:51.801Z,84.91
2017-08-15T01:38:57.698Z,84.11
2017-08-15T01:40:03.811Z,83.67
2017-08-15T01:41:09.686Z,83.27
2017-08-15T01:42:15.837Z,83.29
2017-08-15T01:43:21.965Z,84.11
2017-08-15T01:44:28.092Z,83.92
2017-08-15T01:45:34.190Z,83.93
2017-08-15T01:46:40.046Z,84.02
2017-08-15T01:47:47.031Z,82.42
2017-08-15T01:48:54.009Z,82.09
2017-08-15T01:50:00.111Z,82.50
2017-08-15T01:51:06.228Z,83.11
2017-08-15T01:52:12.345Z,84.62
2017-08-15T01:53:18.488Z,84.49
2017-08-15T01:54:24.572Z,84.09
2017-08-15T01:55:30.677Z,85.71
2017-08-15T01:56:36.811Z,84.29
2017-08-15T01:57:43.004Z,85.15
2017-08-15T01:58:49.119Z,85.92
2017-08-15T01:59:55.294Z,85.31
2017-08-15T02:01:01.385Z,83.71
2017-08-15T02:02:07.312Z,82.57
2017-08-15T02:03:13.436Z,82.76
2017-08-15T02:04:19.531Z,83.48
2017-08-15T02:05:25.646Z,83.39
2017-08-15T02:06:31.729Z,83.47
2017-08-15T02:07:37.819Z,83.34
2017-08-15T02:08:44.022Z,83.61
2017-08-15T02:09:50.077Z,83.37
2017-08-15T02:10:56.219Z,83.02
2017-08-15T02:12:02.310Z,82.96
2017-08-15T02:13:08.389Z,83.68
2017-08-15T02:14:14.505Z,84.10
2017-08-15T02:15:20.551Z,84.93
2017-08-15T02:16:26.616Z,84.83
2017-08-15T02:17:32.718Z,85.47
2017-08-15T02:18:38.999Z,83.65
2017-08-15T02:19:50.246Z,83.24
2017-08-15T02:21:01.473Z,82.76
2017-08-15T02:22:07.562Z,83.95
2017-08-15T02:23:13.659Z,83.79
2017-08-15T02:24:19.746Z,84.97
2017-08-15T02:25:25.817Z,84.49
2017-08-15T02:26:32.000Z,84.41
2017-08-15T02:27:38.108Z,85.62
2017-08-15T02:28:44.189Z,85.50
2017-08-15T02:29:50.241Z,85.46
2017-08-15T02:30:56.409Z,85.21
2017-08-15T02:32:02.503Z,85.73
2017-08-15T02:33:08.610Z,86.59
2017-08-15T02:34:14.701Z,86.72
2017-08-15T02:35:20.829Z,86.72
2017-08-15T02:36:26.901Z,86.50
2017-08-15T02:37:33.071Z,86.17
2017-08-15T02:38:39.351Z,87.88
2017-08-15T02:39:48.354Z,87.76
2017-08-15T02:40:54.113Z,87.13
2017-08-15T02:42:00.177Z,87.39
2017-08-15T02:43:06.235Z,88.14
2017-08-15T02:44:12.313Z,88.80
2017-08-15T02:45:19.033Z,88.50
2017-08-15T02:46:25.096Z,87.48
2017-08-15T02:47:31.233Z,86.30
2017-08-15T02:48:37.334Z,86.87
2017-08-15T02:49:43.391Z,87.00
2017-08-15T02:50:49.482Z,87.78
2017-08-15T02:51:55.691Z,88.88
2017-08-15T02:53:01.764Z,88.27
2017-08-15T02:54:07.826Z,87.66
2017-08-15T02:55:13.668Z,87.93
2017-08-15T02:56:19.802Z,88.86
2017-08-15T02:57:25.842Z,88.25
2017-08-15T02:58:31.946Z,89.03
2017-08-15T02:59:40.190Z,88.75
2017-08-15T03:00:46.324Z,88.05
2017-08-15T03:01:52.439Z,88.46
2017-08-15T03:02:58.828Z,87.45
2017-08-15T03:04:04.983Z,87.67
2017-08-15T03:05:11.060Z,87.61
2017-08-15T03:06:17.149Z,87.68
2017-08-15T03:07:24.045Z,86.45
2017-08-15T03:08:30.125Z,86.36
2017-08-15T03:09:36.221Z,86.19
2017-08-15T03:10:42.320Z,86.08
2017-08-15T03:11:48.438Z,86.67
2017-08-15T03:12:54.582Z,86.29
2017-08-15T03:14:00.689Z,86.85
2017-08-15T03:15:06.757Z,87.16
2017-08-15T03:16:12.857Z,87.36
2017-08-15T03:17:19.053Z,87.12
2017-08-15T03:18:25.161Z,87.47
2017-08-15T03:19:31.329Z,87.65
2017-08-15T03:20:38.320Z,87.98
2017-08-15T03:21:44.933Z,87.71
2017-08-15T03:22:52.219Z,88.18
2017-08-15T03:23:58.314Z,88.57
2017-08-15T03:25:04.853Z,88.47
2017-08-15T03:26:11.338Z,88.86
2017-08-15T03:27:17.481Z,89.27
2017-08-15T03:28:23.535Z,88.99
2017-08-15T03:29:29.677Z,88.21
2017-08-15T03:30:35.784Z,87.65
2017-08-15T03:31:41.923Z,87.16
2017-08-15T03:32:48.015Z,86.79
2017-08-15T03:33:54.113Z,87.14
2017-08-15T03:35:00.191Z,87.60
2017-08-15T03:36:06.289Z,87.48
2017-08-15T03:37:12.390Z,88.16
2017-08-15T03:38:18.527Z,88.54
2017-08-15T03:39:24.623Z,88.59
2017-08-15T03:40:30.755Z,88.39
2017-08-15T03:41:37.178Z,88.56
2017-08-15T03:42:43.293Z,88.07
2017-08-15T03:43:49.437Z,88.27
2017-08-15T03:44:55.404Z,89.74
2017-08-15T03:46:01.470Z,89.58
2017-08-15T03:47:07.557Z,89.27
2017-08-15T03:48:13.744Z,89.16
2017-08-15T03:49:19.845Z,89.51
2017-08-15T03:50:25.941Z,89.98
2017-08-15T03:51:32.040Z,89.48
2017-08-15T03:52:38.162Z,89.70
2017-08-15T03:53:44.285Z,88.93
2017-08-15T03:54:50.362Z,88.81
2017-08-15T03:55:56.435Z,88.95
2017-08-15T03:57:02.574Z,89.42
2017-08-15T03:58:08.670Z,89.50
2017-08-15T03:59:14.778Z,89.27
2017-08-15T04:00:20.872Z,90.38
2017-08-15T04:01:30.143Z,90.51
2017-08-15T04:02:40.538Z,90.57
2017-08-15T04:03:46.712Z,90.52
2017-08-15T04:04:52.947Z,89.47
2017-08-15T04:05:59.070Z,89.40
2017-08-15T04:07:05.161Z,90.02
2017-08-15T04:08:11.209Z,90.28
2017-08-15T04:09:17.334Z,89.94
2017-08-15T04:10:23.511Z,89.81
2017-08-15T04:11:29.563Z,89.12
2017-08-15T04:12:35.678Z,88.77
2017-08-15T04:13:41.791Z,88.64
2017-08-15T04:14:47.877Z,88.72
2017-08-15T04:15:53.967Z,89.55
2017-08-15T04:17:00.044Z,90.20
2017-08-15T04:18:06.124Z,89.93
2017-08-15T04:19:12.236Z,90.21
2017-08-15T04:20:18.354Z,90.05
2017-08-15T04:21:24.450Z,90.39
2017-08-15T04:22:31.326Z,90.21
2017-08-15T04:23:37.795Z,90.83
2017-08-15T04:24:43.910Z,91.23
2017-08-15T04:25:50.043Z,90.80
2017-08-15T04:26:56.219Z,89.98
2017-08-15T04:28:02.347Z,89.80
2017-08-15T04:29:08.457Z,90.73
2017-08-15T04:30:14.573Z,90.65
2017-08-15T04:31:20.571Z,90.92
2017-08-15T04:32:26.697Z,90.66
2017-08-15T04:33:32.819Z,89.53
2017-08-15T04:34:38.955Z,90.47
2017-08-15T04:35:45.097Z,90.23
2017-08-15T04:36:51.187Z,91.27
2017-08-15T04:37:57.308Z,91.49
2017-08-15T04:39:03.652Z,91.42
2017-08-15T04:40:10.131Z,91.31
2017-08-15T04:41:16.804Z,90.75
2017-08-15T04:42:23.099Z,90.59
2017-08-15T04:43:29.825Z,90.57
2017-08-15T04:44:35.888Z,90.27
2017-08-15T04:45:42.048Z,90.05
2017-08-15T04:46:48.131Z,90.28
2017-08-15T04:47:54.194Z,90.25
2017-08-15T04:49:00.288Z,89.95
2017-08-15T04:50:06.377Z,89.45
2017-08-15T04:51:12.443Z,89.74
2017-08-15T04:52:18.548Z,89.44
2017-08-15T04:53:24.624Z,89.57
2017-08-15T04:54:30.692Z,89.96
2017-08-15T04:55:36.786Z,90.10
2017-08-15T04:56:42.930Z,90.29
2017-08-15T04:57:49.012Z,91.30
2017-08-15T04:58:55.178Z,90.71
2017-08-15T05:00:01.285Z,90.00
2017-08-15T05:01:07.215Z,90.61
2017-08-15T05:02:13.337Z,90.27
2017-08-15T05:03:19.253Z,89.94
2017-08-15T05:04:26.778Z,89.03
2017-08-15T05:05:32.887Z,89.33
2017-08-15T05:06:38.956Z,89.42
2017-08-15T05:07:45.077Z,88.95
2017-08-15T05:08:51.156Z,87.82
2017-08-15T05:09:57.265Z,88.53
2017-08-15T05:11:03.345Z,88.00
2017-08-15T05:12:09.449Z,87.57
2017-08-15T05:13:15.591Z,88.12
2017-08-15T05:14:21.658Z,88.17
2017-08-15T05:15:27.740Z,86.22
2017-08-15T05:16:33.810Z,86.30
2017-08-15T05:17:39.904Z,85.21
2017-08-15T05:18:46.020Z,86.30
2017-08-15T05:19:52.102Z,86.42
2017-08-15T05:20:57.979Z,86.03
2017-08-15T05:22:04.092Z,84.59
2017-08-15T05:23:10.209Z,83.87
2017-08-15T05:24:16.331Z,83.43
2017-08-15T05:25:22.492Z,84.14
2017-08-15T05:26:31.364Z,82.95
2017-08-15T05:27:37.439Z,85.89
2017-08-15T05:28:43.565Z,82.62
2017-08-15T05:29:49.655Z,82.73
2017-08-15T05:30:55.815Z,81.32
2017-08-15T05:32:01.893Z,82.98
2017-08-15T05:33:07.982Z,81.83
2017-08-15T05:34:14.086Z,81.50
2017-08-15T05:35:20.153Z,81.18
2017-08-15T05:36:26.227Z,80.46
2017-08-15T05:37:32.302Z,82.96
2017-08-15T05:38:38.387Z,81.12
2017-08-15T05:39:44.493Z,79.03
2017-08-15T05:40:50.574Z,78.48
2017-08-15T05:41:56.765Z,78.74
2017-08-15T05:43:02.874Z,77.99
2017-08-15T05:44:08.972Z,77.69
2017-08-15T05:45:15.053Z,77.50
2017-08-15T05:46:26.702Z,78.47
2017-08-15T05:47:34.786Z,77.89
2017-08-15T05:48:40.847Z,77.68
2017-08-15T05:49:46.941Z,76.61
2017-08-15T05:50:53.039Z,76.42
2017-08-15T05:51:59.110Z,76.65
2017-08-15T05:53:05.175Z,76.87
2017-08-15T05:54:11.264Z,76.83
2017-08-15T05:55:17.389Z,76.78
2017-08-15T05:56:23.448Z,75.88
2017-08-15T05:57:29.550Z,76.10
2017-08-15T05:58:35.642Z,75.94
2017-08-15T05:59:41.745Z,76.22
2017-08-15T06:00:47.849Z,76.69
2017-08-15T06:01:53.910Z,75.76
2017-08-15T06:03:00.027Z,75.53
2017-08-15T06:04:06.065Z,75.03
2017-08-15T06:05:12.137Z,75.32
2017-08-15T06:06:18.260Z,73.19
2017-08-15T06:07:25.436Z,74.71
2017-08-15T06:08:31.493Z,71.80
2017-08-15T06:09:37.602Z,74.11
2017-08-15T06:10:43.734Z,72.48
2017-08-15T06:11:49.617Z,71.83
2017-08-15T06:12:55.783Z,73.16
2017-08-15T06:14:01.886Z,72.26
2017-08-15T06:15:07.964Z,73.92
2017-08-15T06:16:14.095Z,74.13
2017-08-15T06:17:20.168Z,74.83
2017-08-15T06:18:26.250Z,74.63
2017-08-15T06:19:32.348Z,74.08
2017-08-15T06:20:38.463Z,73.45
2017-08-15T06:21:44.549Z,72.38
2017-08-15T06:22:50.603Z,73.56
2017-08-15T06:23:56.709Z,73.01
2017-08-15T06:25:02.780Z,72.26
2017-08-15T06:26:08.864Z,73.03
2017-08-15T06:27:14.990Z,73.35
2017-08-15T06:28:21.106Z,73.77
2017-08-15T06:29:27.220Z,73.41
2017-08-15T06:30:33.301Z,74.14
2017-08-15T06:31:39.410Z,72.60
2017-08-15T06:32:45.492Z,72.95
2017-08-15T06:33:51.552Z,71.89
2017-08-15T06:34:57.647Z,72.06
2017-08-15T06:36:03.703Z,70.19
2017-08-15T06:37:09.806Z,71.35
2017-08-15T06:38:15.877Z,70.28
2017-08-15T06:39:21.925Z,70.79
2017-08-15T06:40:28.000Z,70.96
2017-08-15T06:41:34.062Z,72.26
2017-08-15T06:42:40.159Z,71.68
2017-08-15T06:43:46.251Z,70.32
2017-08-15T06:44:52.326Z,68.79
2017-08-15T06:45:58.062Z,69.18
2017-08-15T06:47:04.161Z,68.86
2017-08-15T06:48:10.580Z,69.33
2017-08-15T06:49:16.712Z,71.91
2017-08-15T06:50:22.889Z,71.84
2017-08-15T06:51:28.953Z,71.19
2017-08-15T06:52:35.007Z,71.39
2017-08-15T06:53:41.126Z,71.64
2017-08-15T06:54:47.156Z,69.25
2017-08-15T06:55:53.043Z,70.52
2017-08-15T06:56:59.139Z,71.52
2017-08-15T06:58:05.245Z,69.83
2017-08-15T06:59:11.324Z,70.10
2017-08-15T07:00:17.401Z,70.48
2017-08-15T07:01:23.538Z,69.04
2017-08-15T07:02:29.669Z,67.92
2017-08-15T07:03:35.791Z,67.02
2017-08-15T07:04:41.867Z,69.21
2017-08-15T07:05:47.903Z,68.09
2017-08-15T07:06:53.962Z,67.98
2017-08-15T07:08:00.016Z,68.26
2017-08-15T07:09:09.626Z,69.93
2017-08-15T07:10:25.880Z,69.07
2017-08-15T07:11:31.955Z,69.45
2017-08-15T07:12:38.053Z,68.98
2017-08-15T07:13:44.153Z,68.00
2017-08-15T07:14:50.207Z,70.13
2017-08-15T07:15:56.373Z,68.56
2017-08-15T07:17:02.409Z,69.98
2017-08-15T07:18:08.459Z,69.01
2017-08-15T07:19:14.566Z,68.15
2017-08-15T07:20:20.641Z,68.27
2017-08-15T07:21:26.531Z,65.97
2017-08-15T07:22:32.620Z,67.31
2017-08-15T07:23:38.724Z,67.71
2017-08-15T07:24:44.829Z,69.45
2017-08-15T07:25:50.875Z,66.89
2017-08-15T07:26:56.954Z,65.82
2017-08-15T07:28:02.997Z,65.63
2017-08-15T07:29:09.029Z,65.67
2017-08-15T07:30:16.899Z,66.20
2017-08-15T07:31:23.025Z,66.68
2017-08-15T07:32:29.157Z,64.90
2017-08-15T07:33:35.189Z,64.45
2017-08-15T07:34:41.294Z,63.13
2017-08-15T07:35:47.404Z,65.79
2017-08-15T07:36:53.487Z,64.79
2017-08-15T07:37:59.587Z,64.45
2017-08-15T07:39:04.916Z,64.23
2017-08-15T07:40:10.993Z,63.09
2017-08-15T07:41:17.079Z,63.18
2017-08-15T07:42:23.233Z,63.67
2017-08-15T07:43:29.288Z,62.87
2017-08-15T07:44:35.321Z,64.77
2017-08-15T07:45:41.451Z,63.79
2017-08-15T07:46:47.531Z,63.82
2017-08-15T07:47:53.601Z,65.19
2017-08-15T07:48:59.675Z,64.96
2017-08-15T07:50:05.803Z,63.87
2017-08-15T07:51:14.218Z,63.56
2017-08-15T07:52:20.319Z,64.72
2017-08-15T07:53:26.405Z,61.81
2017-08-15T07:54:32.507Z,62.16
2017-08-15T07:55:38.595Z,62.73
2017-08-15T07:56:44.701Z,62.72
2017-08-15T07:57:50.786Z,63.32
2017-08-15T07:58:56.855Z,59.77
2017-08-15T08:00:02.900Z,60.17
2017-08-15T08:01:08.802Z,60.91
2017-08-15T08:02:14.882Z,61.36
2017-08-15T08:03:20.933Z,60.18
2017-08-15T08:04:26.994Z,60.34
2017-08-15T08:05:33.074Z,60.94
2017-08-15T08:06:39.251Z,62.93
2017-08-15T08:07:45.388Z,60.94
2017-08-15T08:08:51.530Z,61.66
2017-08-15T08:09:57.605Z,60.24
2017-08-15T08:11:03.689Z,60.10
2017-08-15T08:12:10.012Z,60.83
2017-08-15T08:13:16.361Z,60.02
2017-08-15T08:14:22.494Z,59.87
2017-08-15T08:15:28.550Z,59.34
2017-08-15T08:16:34.706Z,58.70
2017-08-15T08:17:40.837Z,59.56
2017-08-15T08:18:46.911Z,58.35
2017-08-15T08:19:52.989Z,59.40
2017-08-15T08:20:59.091Z,58.80
2017-08-15T08:22:05.199Z,59.57
2017-08-15T08:23:11.120Z,60.37
2017-08-15T08:24:17.214Z,59.49
2017-08-15T08:25:23.321Z,57.73
2017-08-15T08:26:30.049Z,58.35
2017-08-15T08:27:36.113Z,58.73
2017-08-15T08:28:42.219Z,57.87
2017-08-15T08:29:48.315Z,56.84
2017-08-15T08:30:54.370Z,57.33
2017-08-15T08:32:00.472Z,58.83
2017-08-15T08:33:10.385Z,59.55
2017-08-15T08:34:19.790Z,61.29
2017-08-15T08:35:25.885Z,59.93
2017-08-15T08:36:31.997Z,59.67
2017-08-15T08:37:38.058Z,57.73
2017-08-15T08:38:44.172Z,58.76
2017-08-15T08:39:50.234Z,58.16
2017-08-15T08:40:56.409Z,59.37
2017-08-15T08:42:02.571Z,59.61
2017-08-15T08:43:08.689Z,59.32
2017-08-15T08:44:14.828Z,61.28
2017-08-15T08:45:20.923Z,60.72
2017-08-15T08:46:27.032Z,56.72
2017-08-15T08:47:33.113Z,59.18
2017-08-15T08:48:39.206Z,56.07
2017-08-15T08:49:45.296Z,58.22
2017-08-15T08:50:51.388Z,57.13
2017-08-15T08:51:57.514Z,57.27
2017-08-15T08:53:03.576Z,56.74
2017-08-15T08:54:09.658Z,55.83
2017-08-15T08:55:15.741Z,56.97
2017-08-15T08:56:21.823Z,56.90
2017-08-15T08:57:27.892Z,57.85
2017-08-15T08:58:33.994Z,58.02
2017-08-15T08:59:40.045Z,59.86
2017-08-15T09:00:45.933Z,60.99
2017-08-15T09:01:52.010Z,59.06
2017-08-15T09:02:58.072Z,55.96
2017-08-15T09:04:03.994Z,55.44
2017-08-15T09:05:10.105Z,53.92
2017-08-15T09:06:16.017Z,54.75
2017-08-15T09:07:22.077Z,55.49
2017-08-15T09:08:28.149Z,57.13
2017-08-15T09:09:34.057Z,55.52
2017-08-15T09:10:39.965Z,56.03
2017-08-15T09:11:46.049Z,57.87
2017-08-15T09:12:52.143Z,56.41
2017-08-15T09:13:58.060Z,57.48
2017-08-15T09:15:06.120Z,58.27
2017-08-15T09:16:13.307Z,57.61
2017-08-15T09:17:19.412Z,57.49
2017-08-15T09:18:25.461Z,57.70
2017-08-15T09:19:31.372Z,56.02
2017-08-15T09:20:37.272Z,56.81
2017-08-15T09:21:43.430Z,56.70
2017-08-15T09:22:49.481Z,58.79
2017-08-15T09:23:55.466Z,57.87
2017-08-15T09:25:01.551Z,55.70
2017-08-15T09:26:07.481Z,57.56
2017-08-15T09:27:13.566Z,55.80
2017-08-15T09:28:19.492Z,54.20
2017-08-15T09:29:25.405Z,55.13
2017-08-15T09:30:31.298Z,56.17
2017-08-15T09:31:37.226Z,55.89
2017-08-15T09:32:43.229Z,56.15
2017-08-15T09:33:49.301Z,55.22
2017-08-15T09:34:55.258Z,55.43
2017-08-15T09:36:01.172Z,55.26
2017-08-15T09:37:07.024Z,56.57
2017-08-15T09:38:13.075Z,59.58
2017-08-15T09:39:19.221Z,56.49
2017-08-15T09:40:26.459Z,54.78
2017-08-15T09:41:35.153Z,54.95
2017-08-15T09:42:42.773Z,55.53
2017-08-15T09:43:48.814Z,55.25
2017-08-15T09:44:54.886Z,54.90
2017-08-15T09:46:00.975Z,54.40
2017-08-15T09:47:06.944Z,53.24
2017-08-15T09:48:13.110Z,51.43
2017-08-15T09:49:19.042Z,54.12
2017-08-15T09:50:25.108Z,56.08
2017-08-15T09:51:31.146Z,52.26
2017-08-15T09:52:37.297Z,53.71
2017-08-15T09:53:43.398Z,54.77
2017-08-15T09:54:49.469Z,51.98
2017-08-15T09:55:55.592Z,51.49
2017-08-15T09:57:02.558Z,50.96
2017-08-15T09:58:14.116Z,52.77
2017-08-15T09:59:20.389Z,55.02
2017-08-15T10:00:26.436Z,52.59
2017-08-15T10:01:32.501Z,51.91
2017-08-15T10:02:38.589Z,50.29
2017-08-15T10:03:44.679Z,52.72
2017-08-15T10:04:50.728Z,51.70
2017-08-15T10:05:56.788Z,54.29
2017-08-15T10:07:02.847Z,52.14
2017-08-15T10:08:08.993Z,52.07
2017-08-15T10:09:15.070Z,53.25
2017-08-15T10:10:21.138Z,54.34
2017-08-15T10:11:27.215Z,54.42
2017-08-15T10:12:33.160Z,51.40
2017-08-15T10:13:39.062Z,51.07
2017-08-15T10:14:45.157Z,51.60
2017-08-15T10:15:51.210Z,51.89
2017-08-15T10:17:07.414Z,52.22
2017-08-15T10:23:20.306Z,50.67
2017-08-15T10:24:26.766Z,50.16
2017-08-15T10:25:32.529Z,50.71
2017-08-15T10:26:38.593Z,51.74
2017-08-15T10:27:44.721Z,50.93
2017-08-15T10:28:50.786Z,49.70
2017-08-15T10:29:57.005Z,50.44
2017-08-15T10:31:03.090Z,49.54
2017-08-15T10:32:09.145Z,50.22
2017-08-15T10:33:15.222Z,48.00
2017-08-15T10:34:21.083Z,48.79
2017-08-15T10:35:27.126Z,50.99
2017-08-15T10:36:33.224Z,49.74
2017-08-15T10:37:39.294Z,48.37
2017-08-15T10:38:48.177Z,50.44
2017-08-15T10:40:01.988Z,48.82
2017-08-15T10:41:07.765Z,47.34
2017-08-15T10:42:13.814Z,46.65
2017-08-15T10:43:19.698Z,49.37
2017-08-15T10:44:25.440Z,47.51
2017-08-15T10:45:31.207Z,47.89
2017-08-15T10:46:37.267Z,47.12
2017-08-15T10:47:43.103Z,49.06
2017-08-15T10:48:49.176Z,48.01
2017-08-15T10:49:55.273Z,47.23
2017-08-15T10:51:01.377Z,46.89
2017-08-15T10:52:07.412Z,46.56
2017-08-15T10:53:13.191Z,47.80
2017-08-15T10:54:18.772Z,48.84
2017-08-15T10:55:24.356Z,46.80
2017-08-15T10:56:30.132Z,49.71
2017-08-15T10:57:35.708Z,46.78
2017-08-15T10:58:41.318Z,48.18
2017-08-15T10:59:53.153Z,46.75
2017-08-15T11:01:01.138Z,48.19
2017-08-15T11:02:06.903Z,47.49
2017-08-15T11:03:12.645Z,47.21
2017-08-15T11:04:18.444Z,50.32
2017-08-15T11:05:24.232Z,48.93
2017-08-15T11:06:30.005Z,45.19
2017-08-15T11:07:35.769Z,48.50
2017-08-15T11:08:41.542Z,49.46
2017-08-15T11:09:47.321Z,47.89
2017-08-15T11:10:53.363Z,46.52
2017-08-15T11:11:59.144Z,47.85
2017-08-15T11:13:04.890Z,47.05
2017-08-15T11:14:10.710Z,45.99
2017-08-15T11:15:16.476Z,48.76
2017-08-15T11:16:22.281Z,46.76
2017-08-15T11:17:28.032Z,49.55
2017-08-15T11:18:33.773Z,46.31
2017-08-15T11:19:39.342Z,46.43
2017-08-15T11:20:45.077Z,48.65
2017-08-15T11:21:51.169Z,46.73
2017-08-15T11:22:56.922Z,45.83
2017-08-15T11:24:02.715Z,49.43
2017-08-15T11:25:08.517Z,45.42
2017-08-15T11:26:14.285Z,46.62
2017-08-15T11:27:20.367Z,45.77
2017-08-15T11:28:26.103Z,48.91
2017-08-15T11:29:32.149Z,48.47
2017-08-15T11:30:37.931Z,48.20
2017-08-15T11:31:43.686Z,46.98
2017-08-15T11:32:49.787Z,47.79
2017-08-15T11:33:55.605Z,48.65
2017-08-15T11:35:01.347Z,46.40
2017-08-15T11:36:07.102Z,45.09
2017-08-15T11:37:12.879Z,46.48
2017-08-15T11:38:18.671Z,44.53
2017-08-15T11:39:24.514Z,45.89
2017-08-15T11:40:30.273Z,46.83
2017-08-15T11:41:36.014Z,47.65
2017-08-15T11:42:42.137Z,44.64
2017-08-15T11:43:47.956Z,47.84
2017-08-15T11:44:53.758Z,46.15
2017-08-15T11:45:59.504Z,45.69
2017-08-15T11:47:05.280Z,45.87
2017-08-15T11:48:11.091Z,47.70
2017-08-15T11:49:17.127Z,45.42
2017-08-15T11:50:23.227Z,44.23
2017-08-15T11:51:29.017Z,45.01
2017-08-15T11:52:34.767Z,45.11
2017-08-15T11:53:40.606Z,46.88
2017-08-15T11:54:46.369Z,49.36
2017-08-15T11:55:52.129Z,42.47
2017-08-15T11:56:57.909Z,44.95
2017-08-15T11:58:03.672Z,44.38
2017-08-15T11:59:09.449Z,43.47
2017-08-15T12:00:15.192Z,44.96
2017-08-15T12:01:20.922Z,45.59
2017-08-15T12:02:26.671Z,46.22
2017-08-15T12:03:32.442Z,43.48
2017-08-15T12:04:38.230Z,44.93
2017-08-15T12:05:44.029Z,46.05
2017-08-15T12:06:49.595Z,45.50
2017-08-15T12:07:55.239Z,46.24
2017-08-15T12:09:01.013Z,45.72
2017-08-15T12:10:06.558Z,43.36
2017-08-15T12:11:12.609Z,43.34
2017-08-15T12:12:18.409Z,42.74
2017-08-15T12:13:24.162Z,44.50
2017-08-15T12:14:29.978Z,44.88
2017-08-15T12:15:35.738Z,45.36
2017-08-15T12:16:41.498Z,45.01
2017-08-15T12:17:47.290Z,45.02
2017-08-15T12:18:53.073Z,44.81
2017-08-15T12:19:58.900Z,45.24
2017-08-15T12:21:04.669Z,45.52
2017-08-15T12:22:10.433Z,45.27
2017-08-15T12:23:16.195Z,45.23
2017-08-15T12:24:21.939Z,45.28
2017-08-15T12:25:27.558Z,43.29
2017-08-15T12:26:33.175Z,43.16
2017-08-15T12:27:38.929Z,44.67
2017-08-15T12:28:44.706Z,45.24
2017-08-15T12:29:50.489Z,42.55
2017-08-15T12:30:56.359Z,44.52
2017-08-15T12:32:02.111Z,46.33
2017-08-15T12:33:07.908Z,43.50
2017-08-15T12:34:13.662Z,45.51
2017-08-15T12:35:19.529Z,43.32
2017-08-15T12:36:25.292Z,46.04
2017-08-15T12:37:31.063Z,47.12
2017-08-15T12:38:36.807Z,48.13
2017-08-15T12:39:42.581Z,43.90
2017-08-15T12:40:48.383Z,44.14
2017-08-15T12:41:54.132Z,43.54
2017-08-15T12:42:59.885Z,41.49
2017-08-15T12:44:05.626Z,42.14
2017-08-15T12:45:11.383Z,42.55
2017-08-15T12:46:17.182Z,42.42
2017-08-15T12:47:22.993Z,44.34
2017-08-15T12:48:28.782Z,44.37
2017-08-15T12:49:34.573Z,45.72
2017-08-15T12:50:40.595Z,42.39
2017-08-15T12:51:46.458Z,44.42
2017-08-15T12:52:52.219Z,43.64
2017-08-15T12:53:58.010Z,42.71
2017-08-15T12:55:03.763Z,41.72
2017-08-15T12:56:09.510Z,41.59
2017-08-15T12:57:15.283Z,42.97
2017-08-15T12:58:21.061Z,42.51
2017-08-15T12:59:26.834Z,40.91
2017-08-15T13:00:32.661Z,40.47
2017-08-15T13:01:38.522Z,41.43
2017-08-15T13:02:44.285Z,41.37
2017-08-15T13:03:49.867Z,40.80
2017-08-15T13:04:55.523Z,40.24
2017-08-15T13:06:01.315Z,39.96
2017-08-15T13:07:10.289Z,40.31
2017-08-15T13:08:17.899Z,41.72
2017-08-15T13:09:23.680Z,42.41
2017-08-15T13:10:29.449Z,40.44
2017-08-15T13:11:35.192Z,42.37
2017-08-15T13:12:40.994Z,40.30
2017-08-15T13:13:46.795Z,40.32
2017-08-15T13:14:52.628Z,40.57
2017-08-15T13:15:58.402Z,39.41
2017-08-15T13:17:04.170Z,41.77
2017-08-15T13:18:09.941Z,39.31
2017-08-15T13:19:15.702Z,39.32
2017-08-15T13:20:21.465Z,40.02
2017-08-15T13:21:27.060Z,41.23
2017-08-15T13:22:32.821Z,39.33
2017-08-15T13:23:38.410Z,41.79
2017-08-15T13:24:44.253Z,40.52
2017-08-15T13:25:49.884Z,41.13
2017-08-15T13:26:55.583Z,40.55
2017-08-15T13:28:01.282Z,40.29
2017-08-15T13:29:06.876Z,40.51
2017-08-15T13:30:12.502Z,39.09
2017-08-15T13:31:18.282Z,39.02
2017-08-15T13:32:23.966Z,38.84
2017-08-15T13:33:29.643Z,41.28
2017-08-15T13:34:35.222Z,38.92
2017-08-15T13:35:40.830Z,39.33
2017-08-15T13:36:46.409Z,39.17
2017-08-15T13:37:52.031Z,38.78
2017-08-15T13:38:57.693Z,37.96
2017-08-15T13:40:03.557Z,38.32
2017-08-15T13:41:09.177Z,40.37
2017-08-15T13:42:14.975Z,38.27
2017-08-15T13:43:20.793Z,37.35
2017-08-15T13:44:26.619Z,40.86
2017-08-15T13:45:32.198Z,37.72
2017-08-15T13:46:37.775Z,40.15
2017-08-15T13:47:43.369Z,37.13
2017-08-15T13:48:49.003Z,37.21
2017-08-15T13:49:54.633Z,37.91
2017-08-15T13:51:00.493Z,39.64
2017-08-15T13:52:06.057Z,38.63
2017-08-15T13:53:11.599Z,36.66
2017-08-15T13:54:17.157Z,37.69
2017-08-15T13:55:22.984Z,38.54
2017-08-15T13:56:28.802Z,37.60
2017-08-15T13:57:34.383Z,38.08
2017-08-15T13:58:39.977Z,37.90
2017-08-15T13:59:45.637Z,39.18
2017-08-15T14:00:51.286Z,37.16
2017-08-15T14:01:56.961Z,38.27
2017-08-15T14:03:02.642Z,39.79
2017-08-15T14:04:08.262Z,38.77
2017-08-15T14:05:13.897Z,39.21
2017-08-15T14:06:19.856Z,38.83
2017-08-15T14:07:25.494Z,39.30
2017-08-15T14:08:31.058Z,37.29
2017-08-15T14:09:36.660Z,37.90
2017-08-15T14:10:42.402Z,40.45
2017-08-15T14:11:48.026Z,38.69
2017-08-15T14:12:53.620Z,38.86
2017-08-15T14:13:59.191Z,38.21
2017-08-15T14:15:04.818Z,38.76
2017-08-15T14:16:10.504Z,37.63
2017-08-15T14:17:16.153Z,39.19